20:27
Airports
History
Links
Donate
Help keep this website running!
PayPal
Bitcoin
Information on this page is community maintained and may be outdated or inaccurate and is intended for reference only or PC simulator navigating.
Always use approved charts for navigating.
SIYX
Fazenda Varginha
Fazenda Varginha (SIYX)
Andradas, Minas Gerais, Brazil (37795)
4
Lat/Lng:21° 56' 60" S / 46° 32' 60" W
-21.95 / -46.55
Elevation:4200'ft 1280mMSL
ID / ICAO:SIYX
Runways:1
Longest:(15-33) 804.7m 2,640ft Dirt
Distance To
Airport ID:
Nearby WeatherUpdated 06-22-17 20:00 GMT
Nearby weather at SBPC, POCOS DE CALDAS located 7.5 nautical miles from SIYX
Altimeter: 30.27
Visibility: 6.2 statute miles
Wind: 8 knots (090°)
Temp: 18°c 64°f
Humidity: 68.0%

METAR: SBPC 222000Z 09008KT CAVOK 18/12 Q1025

(Powered by phpweather)
Runway 15 / 33
Dimensions:804.7 x 20.1m 2640' x 66'ft
Surface:Dirt
Runway 15 [A]Runway 33 [B]
Heading:131°TH 311°TH
Lat:
Lng:
21° 56' 51.31"S
46° 33' 10.65"W
21° 57' 8.69"S
46° 32' 49.35"W
User Notes and Comments
Google Map
Nearby Airports
(C) POCOS DE CALDAS 7.5 NM
SBPC (WX) N 351°
(U) Sao Joao da Boa Vista 19.2 NM
SDJV WSW 256°
(U) IRMAOS RIBEIRO 20.4 NM
SDIB SW 225°
(C) Ouro Fino 26.0 NM
SNOF SSE 157°
4 Fazenda Campo Vitoria 27.2 NM
SDVA WNW 287°
(U) Aeroclube de Sao Jose do Rio Pardo 32.4 NM
SIPA NW 310°
4 Fazenda Santo Antonio do Oricanga 33.5 NM
SDCT SW 234°
VFR Chart
Flight Planning at SkyVector.com